Time;durP1;ratioP1;P1;durP2;ratioP2;P2;SDS_P1;SDS_P2;PMS_P1;PMS_P2;Temp;Humidity;BMP_temperature;BMP_pressure;BME280_temperature;BME280_humidity;BME280_pressure;Samples;Min_cycle;Max_cycle;Signal;HPM_P1;HPM_P2
2020/12/18 00:00:07;;;;;;;66.87;34.07;;;4.90;99.90;;;;;;5187680;28;20664;-68
2020/12/18 00:02:38;;;;;;;76.63;35.60;;;4.90;99.90;;;;;;5187175;28;20195;-68
2020/12/18 00:05:10;;;;;;;71.93;35.00;;;4.90;99.90;;;;;;5187119;28;20199;-67
2020/12/18 00:07:42;;;;;;;74.57;32.93;;;4.90;99.90;;;;;;5187064;28;20195;-69
2020/12/18 00:10:13;;;;;;;76.30;34.83;;;5.00;99.90;;;;;;5187014;28;20215;-69
2020/12/18 00:12:46;;;;;;;79.13;37.17;;;5.00;99.90;;;;;;5188190;28;20214;-69
2020/12/18 00:15:17;;;;;;;81.77;35.53;;;5.00;99.90;;;;;;5187489;28;20278;-69
2020/12/18 00:17:49;;;;;;;76.93;35.67;;;5.00;99.90;;;;;;5186848;28;20203;-67
2020/12/18 00:20:21;;;;;;;77.43;35.93;;;5.10;99.90;;;;;;5186846;28;20199;-66
2020/12/18 00:22:53;;;;;;;74.93;34.87;;;5.10;99.90;;;;;;5187145;28;20187;-66
2020/12/18 00:25:24;;;;;;;73.53;34.73;;;5.10;99.90;;;;;;5186997;28;20202;-66
2020/12/18 00:27:55;;;;;;;77.20;35.33;;;5.10;99.90;;;;;;5186805;28;20228;-68
2020/12/18 00:30:27;;;;;;;70.37;33.40;;;5.10;99.90;;;;;;5186480;28;20682;-67
2020/12/18 00:32:58;;;;;;;70.60;33.93;;;5.20;99.90;;;;;;5186714;28;20199;-69
2020/12/18 00:35:29;;;;;;;72.83;33.97;;;5.20;99.90;;;;;;5186705;28;20187;-68
2020/12/18 00:38:02;;;;;;;74.63;32.10;;;5.20;99.90;;;;;;5186961;28;20220;-68
2020/12/18 00:40:34;;;;;;;71.20;32.53;;;5.20;99.90;;;;;;5186774;28;20191;-71
2020/12/18 00:43:05;;;;;;;72.13;34.47;;;5.20;99.90;;;;;;5186580;28;20205;-68
2020/12/18 00:45:37;;;;;;;75.57;33.90;;;5.20;99.90;;;;;;5186754;28;20191;-68
2020/12/18 00:48:08;;;;;;;73.77;34.30;;;5.20;99.90;;;;;;5187354;28;20199;-69
2020/12/18 00:50:39;;;;;;;77.70;33.03;;;5.20;99.90;;;;;;5187433;28;20575;-72
2020/12/18 00:53:11;;;;;;;70.30;32.53;;;5.20;99.90;;;;;;5186244;28;20234;-69
2020/12/18 00:55:42;;;;;;;68.17;31.00;;;5.30;99.90;;;;;;5187197;28;20202;-68
2020/12/18 00:58:14;;;;;;;76.90;33.20;;;5.30;99.90;;;;;;5186813;28;20203;-68
2020/12/18 01:00:45;;;;;;;74.83;33.90;;;5.30;99.90;;;;;;5189558;28;20268;-68
2020/12/18 01:03:17;;;;;;;70.80;32.47;;;5.30;99.90;;;;;;5191014;28;20560;-67
2020/12/18 01:05:48;;;;;;;71.77;32.97;;;5.40;99.90;;;;;;5191011;28;20194;-67
2020/12/18 01:08:20;;;;;;;70.20;31.40;;;5.40;99.90;;;;;;5190833;28;20213;-67
2020/12/18 01:10:51;;;;;;;71.67;33.30;;;5.40;99.90;;;;;;5190712;28;20590;-68
2020/12/18 01:13:23;;;;;;;66.30;31.27;;;5.40;99.90;;;;;;5190851;28;20530;-69
2020/12/18 01:15:54;;;;;;;72.13;32.07;;;5.40;99.90;;;;;;5190476;28;20190;-69
2020/12/18 01:18:26;;;;;;;67.17;31.53;;;5.40;99.90;;;;;;5190311;28;20237;-69
2020/12/18 01:20:59;;;;;;;69.87;32.20;;;5.40;99.90;;;;;;5190714;28;20198;-68
2020/12/18 01:23:32;;;;;;;68.17;31.17;;;5.40;99.90;;;;;;5190276;28;20214;-68
2020/12/18 01:26:04;;;;;;;68.47;31.30;;;5.40;99.90;;;;;;5190944;28;20619;-68
2020/12/18 01:28:35;;;;;;;65.17;29.93;;;5.40;99.90;;;;;;5190590;28;20191;-68
2020/12/18 01:31:07;;;;;;;66.20;31.33;;;5.40;99.90;;;;;;5190059;28;20223;-68
2020/12/18 01:33:38;;;;;;;69.17;30.63;;;5.40;99.90;;;;;;5190310;28;20210;-67
2020/12/18 01:36:09;;;;;;;64.87;30.43;;;5.50;99.90;;;;;;5190319;28;20195;-68
2020/12/18 01:38:41;;;;;;;64.30;30.33;;;5.40;99.90;;;;;;5189933;28;20202;-67
2020/12/18 01:41:12;;;;;;;64.33;30.30;;;5.40;99.90;;;;;;5190182;28;20504;-67
2020/12/18 01:43:44;;;;;;;65.53;30.20;;;5.50;99.90;;;;;;5190192;28;20191;-66
2020/12/18 01:46:18;;;;;;;65.17;29.27;;;5.40;99.90;;;;;;5189872;28;20198;-67
2020/12/18 01:48:49;;;;;;;66.50;30.03;;;5.50;99.90;;;;;;5190072;28;20206;-69
2020/12/18 01:55:17;;;;;;;59.50;28.53;;;5.50;99.90;;;;;;5184554;28;20654;-66
2020/12/18 01:57:51;;;;;;;60.70;28.53;;;5.50;99.90;;;;;;5172552;28;20195;-68
2020/12/18 02:00:25;;;;;;;58.67;27.20;;;5.50;99.90;;;;;;5189654;28;20202;-67
2020/12/18 02:02:57;;;;;;;56.63;27.13;;;5.50;99.90;;;;;;5189557;28;20195;-68
2020/12/18 02:05:28;;;;;;;62.00;28.00;;;5.50;99.90;;;;;;5189594;28;20199;-66
2020/12/18 02:08:03;;;;;;;61.83;28.13;;;5.50;99.90;;;;;;5189357;28;20652;-66
2020/12/18 02:10:34;;;;;;;60.37;27.70;;;5.50;99.90;;;;;;5189548;28;20218;-68
2020/12/18 02:13:06;;;;;;;59.80;27.27;;;5.60;99.90;;;;;;5188454;28;20198;-69
2020/12/18 02:15:38;;;;;;;60.00;27.70;;;5.60;99.90;;;;;;5190030;28;20195;-67
2020/12/18 02:18:09;;;;;;;59.30;26.93;;;5.60;99.90;;;;;;5190827;28;20199;-70
2020/12/18 02:20:41;;;;;;;56.27;24.93;;;5.60;99.90;;;;;;5190853;28;20199;-68
2020/12/18 02:23:13;;;;;;;49.50;24.60;;;5.60;99.90;;;;;;5191014;28;20533;-69
2020/12/18 02:25:58;;;;;;;53.67;24.17;;;5.60;99.90;;;;;;5189626;28;20634;-67
2020/12/18 02:28:29;;;;;;;49.53;23.17;;;5.60;99.90;;;;;;5190199;28;20591;-69
2020/12/18 02:31:01;;;;;;;52.00;23.93;;;5.60;99.90;;;;;;5190116;28;20221;-69
2020/12/18 02:33:32;;;;;;;54.53;23.20;;;5.60;99.90;;;;;;5189904;28;20210;-69
2020/12/18 02:36:04;;;;;;;50.83;24.03;;;5.70;99.90;;;;;;5190272;28;20247;-66
2020/12/18 02:38:36;;;;;;;51.83;24.00;;;5.70;99.90;;;;;;5189398;28;20195;-69
2020/12/18 02:41:07;;;;;;;50.20;24.70;;;5.70;99.90;;;;;;5189384;28;20286;-69
2020/12/18 02:43:39;;;;;;;53.07;24.23;;;5.70;99.90;;;;;;5189132;28;20199;-69
2020/12/18 02:46:10;;;;;;;52.87;23.87;;;5.70;99.90;;;;;;5189031;28;20551;-68
2020/12/18 02:48:42;;;;;;;56.30;24.63;;;5.70;99.90;;;;;;5188911;28;20238;-69
2020/12/18 02:51:13;;;;;;;53.33;23.93;;;5.70;99.90;;;;;;5188374;28;20238;-66
2020/12/18 02:53:44;;;;;;;54.60;23.90;;;5.70;99.90;;;;;;5188242;28;20233;-67
2020/12/18 02:56:26;;;;;;;53.97;24.57;;;5.80;99.90;;;;;;5188415;28;20192;-67
2020/12/18 02:58:57;;;;;;;60.37;25.53;;;5.80;99.90;;;;;;5188685;28;20191;-68
2020/12/18 03:01:28;;;;;;;51.87;23.73;;;5.80;99.90;;;;;;5187991;28;20211;-67
2020/12/18 03:04:00;;;;;;;52.77;23.60;;;5.80;99.90;;;;;;5188135;28;20202;-67
2020/12/18 03:10:27;;;;;;;53.57;23.23;;;5.80;99.90;;;;;;5188484;28;20289;-69
2020/12/18 03:13:00;;;;;;;53.27;23.57;;;5.80;99.90;;;;;;5188201;28;20600;-67
2020/12/18 03:15:31;;;;;;;49.70;23.73;;;5.80;99.90;;;;;;5188675;28;20199;-69
2020/12/18 03:18:02;;;;;;;50.17;22.60;;;5.80;99.90;;;;;;5189641;28;20199;-69
2020/12/18 03:20:34;;;;;;;53.80;22.73;;;5.80;99.90;;;;;;5192799;28;20326;-69
2020/12/18 03:26:51;;;;;;;54.80;23.63;;;5.80;99.90;;;;;;5188883;28;20164;-69
2020/12/18 03:29:22;;;;;;;53.27;22.73;;;5.80;99.90;;;;;;5188077;28;20191;-68
2020/12/18 03:31:54;;;;;;;48.30;22.33;;;5.80;99.90;;;;;;5188021;28;20584;-68
2020/12/18 03:34:25;;;;;;;54.93;23.97;;;5.80;99.90;;;;;;5187925;28;20593;-66
2020/12/18 03:36:56;;;;;;;54.50;23.73;;;5.90;99.90;;;;;;5188356;28;20211;-66
2020/12/18 03:39:28;;;;;;;53.37;23.07;;;5.80;99.90;;;;;;5187583;28;20198;-66
2020/12/18 03:42:00;;;;;;;47.70;22.27;;;5.80;99.90;;;;;;5187891;28;20641;-66
2020/12/18 03:44:31;;;;;;;52.10;22.60;;;5.90;99.90;;;;;;5187537;28;20202;-70
2020/12/18 03:47:04;;;;;;;55.57;24.57;;;5.90;99.90;;;;;;5187540;28;20234;-69
2020/12/18 03:49:40;;;;;;;49.87;22.73;;;5.90;99.90;;;;;;5187307;28;20604;-69
2020/12/18 03:52:12;;;;;;;53.07;23.37;;;5.90;99.90;;;;;;5187255;28;20218;-67
2020/12/18 03:54:43;;;;;;;48.17;21.33;;;5.90;99.90;;;;;;5187237;28;20238;-68
2020/12/18 03:57:15;;;;;;;50.23;22.23;;;5.90;99.90;;;;;;5187312;28;20203;-67
2020/12/18 03:59:47;;;;;;;48.63;22.53;;;6.00;99.90;;;;;;5187435;28;20595;-67
2020/12/18 04:02:18;;;;;;;48.07;22.27;;;6.00;99.90;;;;;;5186976;28;20199;-68
2020/12/18 04:04:50;;;;;;;52.10;21.83;;;6.00;99.90;;;;;;5187043;28;20233;-68
2020/12/18 04:07:22;;;;;;;48.50;21.13;;;6.00;99.90;;;;;;5187500;28;20191;-67
2020/12/18 04:09:53;;;;;;;43.83;20.90;;;6.00;99.90;;;;;;5187389;28;20218;-66
2020/12/18 04:12:24;;;;;;;47.50;22.13;;;6.00;99.90;;;;;;5187000;28;20226;-68
2020/12/18 04:14:56;;;;;;;43.07;20.37;;;6.00;99.90;;;;;;5187679;28;20652;-66
2020/12/18 04:17:27;;;;;;;50.07;22.67;;;6.10;99.90;;;;;;5187136;28;20673;-69
2020/12/18 04:19:59;;;;;;;53.70;22.07;;;6.10;99.90;;;;;;5187443;28;20638;-68
2020/12/18 04:22:30;;;;;;;48.63;21.73;;;6.10;99.90;;;;;;5137223;28;20673;-68
2020/12/18 04:25:02;;;;;;;49.00;21.53;;;6.10;99.90;;;;;;5169720;28;20217;-67
2020/12/18 04:27:34;;;;;;;51.50;22.60;;;6.10;99.90;;;;;;5187057;28;20206;-67
2020/12/18 04:30:06;;;;;;;54.07;23.23;;;6.10;99.90;;;;;;5187016;28;20555;-67
2020/12/18 04:32:37;;;;;;;55.80;22.20;;;6.10;99.90;;;;;;5186580;28;20223;-68
2020/12/18 04:35:08;;;;;;;53.90;22.03;;;6.20;99.90;;;;;;5186114;28;20214;-67
2020/12/18 04:37:40;;;;;;;51.13;21.93;;;6.20;99.90;;;;;;5186534;28;20191;-67
2020/12/18 04:40:12;;;;;;;50.20;21.07;;;6.20;99.90;;;;;;5169088;28;20195;-68
2020/12/18 04:42:44;;;;;;;62.33;23.27;;;6.20;99.90;;;;;;5186446;28;20202;-66
2020/12/18 04:45:16;;;;;;;65.53;24.97;;;6.20;99.90;;;;;;5186775;28;20191;-68
2020/12/18 04:47:52;;;;;;;61.70;25.00;;;6.20;99.90;;;;;;5187179;28;20661;-66
2020/12/18 04:50:25;;;;;;;61.97;24.60;;;6.30;99.90;;;;;;5186298;28;20205;-68
2020/12/18 04:52:57;;;;;;;62.63;24.93;;;6.30;99.90;;;;;;5186430;28;20202;-67
2020/12/18 04:55:29;;;;;;;68.83;25.40;;;6.30;99.90;;;;;;5186846;28;20242;-67
2020/12/18 04:58:03;;;;;;;67.07;26.47;;;6.30;99.90;;;;;;5186316;28;20199;-66
2020/12/18 05:00:34;;;;;;;72.47;27.33;;;6.30;99.90;;;;;;5186213;28;20195;-66
2020/12/18 05:03:06;;;;;;;73.80;27.70;;;6.30;99.90;;;;;;5186196;28;20206;-67
2020/12/18 05:05:37;;;;;;;71.23;25.47;;;6.30;99.90;;;;;;5186380;28;20191;-67
2020/12/18 05:08:08;;;;;;;71.33;28.03;;;6.30;99.90;;;;;;5186333;28;20199;-68
2020/12/18 05:10:40;;;;;;;71.80;26.90;;;6.30;99.90;;;;;;5186264;28;20565;-68
2020/12/18 05:13:11;;;;;;;74.27;27.30;;;6.30;99.90;;;;;;5186401;28;20206;-67
2020/12/18 05:15:43;;;;;;;73.90;27.13;;;6.30;99.90;;;;;;5186305;28;20191;-67
2020/12/18 05:18:17;;;;;;;74.80;27.70;;;6.40;99.90;;;;;;5186397;28;20199;-67
2020/12/18 05:20:49;;;;;;;73.90;27.57;;;6.40;99.90;;;;;;5186603;28;20559;-70
2020/12/18 05:23:20;;;;;;;68.77;26.93;;;6.40;99.90;;;;;;5186261;28;20191;-69
2020/12/18 05:25:53;;;;;;;71.47;27.97;;;6.40;99.90;;;;;;5186069;28;20195;-71
2020/12/18 05:28:25;;;;;;;71.90;27.53;;;6.40;99.90;;;;;;5186301;28;20202;-70
2020/12/18 05:30:56;;;;;;;77.80;27.97;;;6.40;99.90;;;;;;5186034;28;20215;-70
2020/12/18 05:33:27;;;;;;;70.83;27.43;;;6.40;99.90;;;;;;5186309;28;20558;-69
2020/12/18 05:35:59;;;;;;;83.83;28.03;;;6.40;99.90;;;;;;5186245;28;20222;-69
2020/12/18 05:38:38;;;;;;;77.33;29.23;;;6.50;99.90;;;;;;5186330;28;20553;-69
2020/12/18 05:41:09;;;;;;;70.90;27.97;;;6.50;99.90;;;;;;5185831;28;20209;-69
2020/12/18 05:43:42;;;;;;;73.20;28.93;;;6.50;99.90;;;;;;5186164;28;20638;-69
2020/12/18 05:46:34;;;;;;;70.83;27.53;;;6.50;99.90;;;;;;5187472;28;20202;-65
2020/12/18 05:49:08;;;;;;;74.03;29.20;;;6.50;99.90;;;;;;5189693;28;20195;-69
2020/12/18 05:51:41;;;;;;;70.73;27.17;;;6.50;99.90;;;;;;5189774;28;20223;-68
2020/12/18 05:54:21;;;;;;;72.57;29.10;;;6.50;99.90;;;;;;5186733;28;20234;-70
2020/12/18 05:56:52;;;;;;;70.20;29.07;;;6.50;99.90;;;;;;5189622;28;20195;-68
2020/12/18 05:59:24;;;;;;;75.60;28.60;;;6.50;99.90;;;;;;5189701;28;20199;-70
2020/12/18 06:01:55;;;;;;;68.17;26.90;;;6.50;99.90;;;;;;5189408;28;20187;-67
2020/12/18 06:04:27;;;;;;;69.23;28.50;;;6.60;99.90;;;;;;5189650;28;20195;-67
2020/12/18 06:06:59;;;;;;;64.27;26.80;;;6.60;99.90;;;;;;5189412;28;20283;-67
2020/12/18 06:09:31;;;;;;;67.67;26.83;;;6.50;99.90;;;;;;5189379;28;20236;-65
2020/12/18 06:12:07;;;;;;;68.23;27.20;;;6.60;99.90;;;;;;5189122;28;20697;-67
2020/12/18 06:14:40;;;;;;;64.40;28.83;;;6.60;99.90;;;;;;5189157;28;20203;-66
2020/12/18 06:17:15;;;;;;;66.00;27.23;;;6.60;99.90;;;;;;5189351;28;20199;-67
2020/12/18 06:19:47;;;;;;;64.67;27.37;;;6.60;99.90;;;;;;5189420;28;20537;-69
2020/12/18 06:26:04;;;;;;;56.67;25.27;;;6.50;99.90;;;;;;5189266;28;20286;-70
2020/12/18 06:28:35;;;;;;;53.83;25.03;;;6.50;99.90;;;;;;5189434;28;20630;-67
2020/12/18 06:31:26;;;;;;;53.63;24.37;;;6.40;99.90;;;;;;5188715;28;20225;-68
2020/12/18 06:34:01;;;;;;;57.73;26.63;;;6.40;99.90;;;;;;5189163;28;20657;-67
2020/12/18 06:36:53;;;;;;;56.07;26.77;;;6.40;99.90;;;;;;5189000;28;20214;-65
2020/12/18 06:43:11;;;;;;;58.50;26.07;;;6.50;99.90;;;;;;5188803;28;20167;-69
2020/12/18 06:45:42;;;;;;;65.07;26.57;;;6.50;99.90;;;;;;5189119;28;20199;-66
2020/12/18 06:48:48;;;;;;;56.00;26.40;;;6.50;99.90;;;;;;5189081;28;20191;-67
2020/12/18 06:51:29;;;;;;;57.33;24.90;;;6.50;99.90;;;;;;5189177;28;20226;-67
2020/12/18 06:54:11;;;;;;;61.73;27.53;;;6.50;99.90;;;;;;5188730;28;20226;-67
2020/12/18 06:56:42;;;;;;;64.50;27.07;;;6.50;99.90;;;;;;5189559;28;20210;-71
2020/12/18 06:59:22;;;;;;;66.93;26.80;;;6.50;99.90;;;;;;5189060;28;20526;-66
2020/12/18 07:01:53;;;;;;;63.70;26.67;;;6.50;99.90;;;;;;5189362;28;20365;-68
2020/12/18 07:04:24;;;;;;;55.87;25.37;;;6.50;99.90;;;;;;5190168;28;20548;-71
2020/12/18 07:07:21;;;;;;;55.37;25.00;;;6.50;99.90;;;;;;5189889;28;20195;-68
2020/12/18 07:09:53;;;;;;;52.50;24.47;;;6.60;99.90;;;;;;5190274;28;20557;-71
2020/12/18 07:12:24;;;;;;;51.47;24.67;;;6.60;99.90;;;;;;5191648;28;20230;-74
2020/12/18 07:14:56;;;;;;;50.03;24.60;;;6.50;99.90;;;;;;5190002;28;20195;-66
2020/12/18 07:17:30;;;;;;;47.80;23.53;;;6.50;99.90;;;;;;5189354;28;20231;-64
2020/12/18 07:20:01;;;;;;;52.30;24.30;;;6.40;99.90;;;;;;5189370;28;20238;-66
2020/12/18 07:22:33;;;;;;;51.37;24.80;;;6.40;99.90;;;;;;5189375;28;20191;-68
2020/12/18 07:25:24;;;;;;;53.23;24.90;;;6.30;99.90;;;;;;5126906;29;20667;-67
2020/12/18 07:27:56;;;;;;;48.87;24.90;;;6.20;99.90;;;;;;5126753;29;20664;-71
2020/12/18 07:30:31;;;;;;;53.50;23.80;;;6.20;99.90;;;;;;5126278;29;20213;-68
2020/12/18 07:33:03;;;;;;;51.07;25.40;;;6.30;99.90;;;;;;5126233;29;20291;-68
2020/12/18 07:35:43;;;;;;;48.63;23.93;;;6.30;99.90;;;;;;5125805;29;20233;-66
2020/12/18 07:42:19;;;;;;;46.63;22.13;;;6.40;99.90;;;;;;5101425;29;20252;-68
2020/12/18 07:45:29;;;;;;;45.80;21.77;;;6.40;99.90;;;;;;5049293;28;20210;-67
2020/12/18 07:48:11;;;;;;;43.67;20.67;;;6.40;99.90;;;;;;5152597;28;20195;-66
2020/12/18 07:51:04;;;;;;;44.77;20.60;;;6.40;99.90;;;;;;5141400;28;20240;-69
2020/12/18 07:53:42;;;;;;;44.50;21.70;;;6.40;99.90;;;;;;5137945;28;20842;-66
2020/12/18 07:56:22;;;;;;;48.70;22.93;;;6.50;99.90;;;;;;5146251;28;20195;-65
2020/12/18 07:59:04;;;;;;;41.50;20.80;;;6.50;99.90;;;;;;5189045;28;20199;-67
2020/12/18 08:01:37;;;;;;;38.83;20.80;;;6.50;99.90;;;;;;5187401;28;20214;-67
2020/12/18 08:04:11;;;;;;;41.27;20.47;;;6.60;99.90;;;;;;5187311;28;20209;-66
2020/12/18 08:06:43;;;;;;;41.97;20.93;;;6.60;99.90;;;;;;5170269;28;20676;-66
2020/12/18 08:09:27;;;;;;;40.47;20.00;;;6.70;99.90;;;;;;5140765;28;20385;-67
2020/12/18 08:12:10;;;;;;;41.03;20.77;;;6.70;99.90;;;;;;5126592;28;20234;-65
2020/12/18 08:14:41;;;;;;;40.23;20.50;;;6.70;99.90;;;;;;5186256;28;20198;-66
2020/12/18 08:17:22;;;;;;;43.23;21.67;;;6.70;99.90;;;;;;5169848;28;20191;-66
2020/12/18 08:19:54;;;;;;;46.73;21.90;;;6.70;99.90;;;;;;5187119;28;20195;-66
2020/12/18 08:22:31;;;;;;;45.50;22.77;;;6.70;99.90;;;;;;5187531;28;20206;-66
2020/12/18 08:25:04;;;;;;;41.47;21.73;;;6.70;99.90;;;;;;5186314;28;20282;-67
2020/12/18 08:28:01;;;;;;;43.33;22.17;;;6.70;99.90;;;;;;5186843;28;20298;-67
2020/12/18 08:30:33;;;;;;;42.67;22.57;;;6.80;99.90;;;;;;5184061;28;20202;-67
2020/12/18 08:33:05;;;;;;;43.97;22.90;;;6.80;99.90;;;;;;5187483;28;20206;-67
2020/12/18 08:35:37;;;;;;;43.97;22.07;;;6.80;99.90;;;;;;5169566;28;20198;-70
2020/12/18 08:41:54;;;;;;;51.30;24.90;;;6.80;99.90;;;;;;5186878;28;20693;-68
2020/12/18 08:44:35;;;;;;;46.97;23.50;;;6.80;99.90;;;;;;5187097;28;20558;-65
2020/12/18 08:47:21;;;;;;;48.20;24.10;;;6.80;99.90;;;;;;5186758;28;20199;-68
2020/12/18 08:49:54;;;;;;;46.23;23.93;;;6.90;99.90;;;;;;5186947;28;20546;-67
2020/12/18 08:52:29;;;;;;;47.40;23.50;;;6.90;99.90;;;;;;5186332;28;20219;-67
2020/12/18 08:59:36;;;;;;;39.90;20.13;;;7.00;99.90;;;;;;5146360;28;20259;-68
2020/12/18 09:02:15;;;;;;;46.57;22.30;;;7.10;99.90;;;;;;5145357;28;20192;-68
2020/12/18 09:04:46;;;;;;;41.57;23.17;;;7.20;99.90;;;;;;5146515;28;20261;-68
2020/12/18 09:07:18;;;;;;;42.77;22.13;;;7.30;99.90;;;;;;5148198;28;20198;-72
2020/12/18 09:13:47;;;;;;;43.13;21.27;;;7.50;99.90;;;;;;5146754;28;20622;-72
2020/12/18 09:16:23;;;;;;;39.17;20.70;;;7.60;99.90;;;;;;5146270;28;20203;-74
2020/12/18 09:18:59;;;;;;;36.40;20.83;;;7.60;99.90;;;;;;5146330;28;20196;-69
2020/12/18 09:21:30;;;;;;;33.17;19.77;;;7.60;99.90;;;;;;5147970;28;20198;-67
2020/12/18 09:24:16;;;;;;;37.30;21.13;;;7.50;99.90;;;;;;5149698;28;20200;-71
2020/12/18 09:26:47;;;;;;;41.67;21.47;;;7.60;99.90;;;;;;5149846;28;20196;-67
2020/12/18 09:29:19;;;;;;;35.77;20.40;;;7.60;99.90;;;;;;5149696;28;20196;-72
2020/12/18 09:31:50;;;;;;;37.43;21.13;;;7.70;99.90;;;;;;5149304;28;20220;-69
2020/12/18 09:34:21;;;;;;;38.20;20.93;;;7.60;99.90;;;;;;5147897;28;20203;-71
2020/12/18 09:36:56;;;;;;;35.43;20.10;;;7.60;99.90;;;;;;5148926;28;20194;-72
2020/12/18 09:39:27;;;;;;;39.77;21.23;;;7.50;99.90;;;;;;5149424;28;20196;-68
2020/12/18 09:41:59;;;;;;;40.20;21.33;;;7.40;99.90;;;;;;5149700;28;20219;-72
2020/12/18 09:44:31;;;;;;;40.53;22.90;;;7.40;99.90;;;;;;5149710;28;20196;-68
2020/12/18 09:47:02;;;;;;;34.23;21.20;;;7.50;99.90;;;;;;5149125;28;20226;-68
2020/12/18 09:49:33;;;;;;;39.77;21.70;;;7.50;99.90;;;;;;5150039;28;20197;-72
2020/12/18 09:52:06;;;;;;;39.50;22.00;;;7.50;99.90;;;;;;5149178;28;20223;-73
2020/12/18 09:54:38;;;;;;;39.10;21.93;;;7.60;99.90;;;;;;5148613;28;20192;-70
2020/12/18 09:57:09;;;;;;;37.43;21.77;;;7.60;99.90;;;;;;5152244;28;20564;-69
2020/12/18 09:59:41;;;;;;;42.10;21.77;;;7.70;99.90;;;;;;5188029;28;20198;-68
2020/12/18 10:02:13;;;;;;;37.63;20.47;;;7.80;99.90;;;;;;5190199;28;20195;-69
2020/12/18 10:04:45;;;;;;;35.23;20.07;;;7.80;99.90;;;;;;5189837;28;20201;-66
2020/12/18 10:07:16;;;;;;;38.77;20.73;;;7.80;99.90;;;;;;5189200;28;20199;-67
2020/12/18 10:09:48;;;;;;;37.43;21.00;;;7.80;99.90;;;;;;5189636;28;20211;-66
2020/12/18 10:12:19;;;;;;;38.13;21.27;;;7.90;99.90;;;;;;5189965;28;20581;-67
2020/12/18 10:14:51;;;;;;;35.00;20.70;;;7.90;99.90;;;;;;5189810;28;20194;-66
2020/12/18 10:17:24;;;;;;;36.83;21.10;;;7.90;99.90;;;;;;5189650;28;20198;-67
2020/12/18 10:19:55;;;;;;;39.70;21.73;;;7.90;99.90;;;;;;5189912;28;20191;-67
2020/12/18 10:22:27;;;;;;;37.37;20.87;;;7.90;99.90;;;;;;5189332;28;20206;-67
2020/12/18 10:24:58;;;;;;;38.33;21.27;;;7.80;99.90;;;;;;5189641;28;20195;-68
2020/12/18 10:27:30;;;;;;;35.73;20.60;;;7.80;99.90;;;;;;5189686;28;20577;-73
2020/12/18 10:30:02;;;;;;;40.23;21.13;;;7.90;99.90;;;;;;5189520;28;20206;-74
2020/12/18 10:32:35;;;;;;;34.23;19.60;;;8.00;99.90;;;;;;5187995;28;20247;-66
2020/12/18 10:35:07;;;;;;;36.27;19.30;;;8.00;99.90;;;;;;5189259;28;20191;-71
2020/12/18 10:37:39;;;;;;;36.70;20.83;;;8.00;99.90;;;;;;5189298;28;20199;-68
2020/12/18 10:40:12;;;;;;;32.67;19.87;;;8.00;99.90;;;;;;5189013;28;20207;-67
2020/12/18 10:42:44;;;;;;;33.90;19.03;;;8.10;99.90;;;;;;5170357;28;20654;-66
2020/12/18 10:45:15;;;;;;;36.17;19.07;;;8.10;99.90;;;;;;5188790;28;20198;-67
2020/12/18 10:47:46;;;;;;;32.37;18.60;;;8.20;99.90;;;;;;5188779;28;20639;-70
2020/12/18 10:50:21;;;;;;;31.80;17.97;;;8.20;99.90;;;;;;5188794;28;20195;-70
2020/12/18 10:52:52;;;;;;;31.00;16.73;;;8.30;99.90;;;;;;5188916;28;20214;-67
2020/12/18 10:55:24;;;;;;;32.60;17.83;;;8.40;99.90;;;;;;5188953;28;20558;-68
2020/12/18 10:57:56;;;;;;;30.17;17.00;;;8.40;99.90;;;;;;5188510;28;20238;-68
2020/12/18 11:00:28;;;;;;;32.13;17.40;;;8.50;99.90;;;;;;5188859;28;20274;-68
2020/12/18 11:02:59;;;;;;;24.57;13.53;;;8.50;99.90;;;;;;5171666;28;20536;-70
2020/12/18 11:05:32;;;;;;;23.70;13.77;;;8.40;99.90;;;;;;5188774;28;20202;-68
2020/12/18 11:08:04;;;;;;;28.27;15.00;;;8.40;99.90;;;;;;5188770;28;20633;-68
2020/12/18 11:10:36;;;;;;;27.33;14.97;;;8.40;99.90;;;;;;5171045;28;20198;-71
2020/12/18 11:13:07;;;;;;;24.97;14.93;;;8.40;99.90;;;;;;5189382;28;20229;-72
2020/12/18 11:15:43;;;;;;;22.70;14.20;;;8.40;99.90;;;;;;5188393;28;20197;-70
2020/12/18 11:18:14;;;;;;;26.33;14.70;;;8.30;99.90;;;;;;5189191;28;20191;-74
2020/12/18 11:20:46;;;;;;;23.80;14.63;;;8.30;99.90;;;;;;5188972;28;20195;-69
2020/12/18 11:23:17;;;;;;;23.60;14.50;;;8.30;99.90;;;;;;5189000;28;20191;-74
2020/12/18 11:25:49;;;;;;;25.73;15.03;;;8.20;99.90;;;;;;5190016;28;20613;-74
2020/12/18 11:28:20;;;;;;;29.13;16.40;;;8.10;99.90;;;;;;5195812;28;20198;-70
2020/12/18 11:30:51;;;;;;;25.73;15.60;;;8.00;99.90;;;;;;5192225;28;20194;-75
2020/12/18 11:33:24;;;;;;;29.23;16.07;;;8.00;99.90;;;;;;5189013;28;20196;-72
2020/12/18 11:35:56;;;;;;;30.33;15.47;;;8.00;99.90;;;;;;5188528;28;20191;-69
2020/12/18 11:38:27;;;;;;;25.47;15.00;;;8.10;99.90;;;;;;5188048;28;20215;-73
2020/12/18 11:40:59;;;;;;;28.87;14.23;;;8.10;99.90;;;;;;5181910;28;20199;-71
2020/12/18 11:43:31;;;;;;;26.40;13.73;;;8.10;99.90;;;;;;5187829;28;20198;-71
2020/12/18 11:46:03;;;;;;;25.53;13.23;;;8.10;99.90;;;;;;5188178;28;20598;-74
2020/12/18 11:48:34;;;;;;;27.20;12.53;;;8.10;99.90;;;;;;5170436;28;20210;-73
2020/12/18 11:51:07;;;;;;;23.73;12.47;;;8.10;99.90;;;;;;5187742;28;20187;-69
2020/12/18 11:53:39;;;;;;;26.33;12.80;;;8.10;99.90;;;;;;5187852;28;20237;-72
2020/12/18 11:56:10;;;;;;;25.00;11.70;;;8.10;99.90;;;;;;5187506;28;20195;-73
2020/12/18 11:58:42;;;;;;;19.17;12.37;;;8.20;99.90;;;;;;5187542;28;20234;-71
2020/12/18 12:01:21;;;;;;;20.60;11.70;;;8.20;99.90;;;;;;5188274;28;20535;-72
2020/12/18 12:03:53;;;;;;;22.60;12.20;;;8.20;99.90;;;;;;5187514;28;20230;-68
2020/12/18 12:06:24;;;;;;;25.57;11.90;;;8.20;99.90;;;;;;5170556;28;20195;-68
2020/12/18 12:12:51;;;;;;;20.87;10.87;;;8.20;99.90;;;;;;5187499;28;20214;-71
2020/12/18 12:15:23;;;;;;;16.23;9.90;;;8.00;99.90;;;;;;5187366;28;20199;-77
2020/12/18 12:17:54;;;;;;;17.40;9.47;;;7.80;99.90;;;;;;5187878;28;20638;-75
2020/12/18 12:20:26;;;;;;;18.40;10.67;;;7.70;99.90;;;;;;5187660;28;20195;-71
2020/12/18 12:22:57;;;;;;;19.80;10.80;;;7.60;99.90;;;;;;5186891;28;20206;-67
2020/12/18 12:29:24;;;;;;;18.93;10.80;;;7.70;99.90;;;;;;5186981;28;20218;-72
2020/12/18 12:31:56;;;;;;;17.03;9.17;;;7.90;99.90;;;;;;5187041;28;20222;-73
2020/12/18 12:34:28;;;;;;;16.43;10.67;;;7.80;99.90;;;;;;5187399;28;20653;-70
2020/12/18 12:37:00;;;;;;;19.80;10.37;;;7.80;99.90;;;;;;5187091;28;20572;-69
2020/12/18 12:39:32;;;;;;;19.37;10.77;;;7.80;99.90;;;;;;5169161;28;20195;-70
2020/12/18 12:42:04;;;;;;;19.63;12.27;;;7.80;99.90;;;;;;5186631;28;20205;-73
2020/12/18 12:44:37;;;;;;;17.33;10.53;;;7.70;99.90;;;;;;5186972;28;20195;-71
2020/12/18 12:47:09;;;;;;;23.10;11.40;;;7.60;99.90;;;;;;5187035;28;20206;-71
2020/12/18 12:49:41;;;;;;;21.30;12.47;;;7.60;99.90;;;;;;5186792;28;20646;-70
2020/12/18 12:52:12;;;;;;;17.97;10.90;;;7.50;99.90;;;;;;5186632;28;20222;-72
2020/12/18 12:54:44;;;;;;;25.07;12.73;;;7.50;99.90;;;;;;5185187;28;20195;-68
2020/12/18 12:57:15;;;;;;;20.70;12.30;;;7.50;99.90;;;;;;5185717;28;20191;-69
2020/12/18 12:59:47;;;;;;;25.37;13.60;;;7.40;99.90;;;;;;5186694;28;20191;-71
2020/12/18 13:02:19;;;;;;;26.38;16.55;;;7.50;99.90;;;;;;5185897;28;20424;-72
2020/12/18 13:04:50;;;;;;;20.90;13.37;;;7.50;99.90;;;;;;5186615;28;20638;-70
2020/12/18 13:07:22;;;;;;;22.77;13.80;;;7.40;99.90;;;;;;5186796;28;20680;-68
2020/12/18 13:09:54;;;;;;;25.57;14.50;;;7.50;99.90;;;;;;5187562;28;20191;-68
2020/12/18 13:12:25;;;;;;;24.23;13.60;;;7.50;99.90;;;;;;5186689;28;20573;-69
2020/12/18 13:14:58;;;;;;;23.43;13.30;;;7.40;99.90;;;;;;5186423;28;20187;-70
2020/12/18 13:17:29;;;;;;;22.37;13.60;;;7.50;99.90;;;;;;5185848;28;20195;-69
2020/12/18 13:20:00;;;;;;;22.33;12.87;;;7.40;99.90;;;;;;5186026;28;20191;-69
2020/12/18 13:22:32;;;;;;;22.90;13.00;;;7.40;99.90;;;;;;5186176;28;20206;-69
2020/12/18 13:25:03;;;;;;;24.37;14.07;;;7.40;99.90;;;;;;5186311;28;20194;-69
2020/12/18 13:27:35;;;;;;;21.00;12.73;;;7.40;99.90;;;;;;5186479;28;20222;-69
2020/12/18 13:30:06;;;;;;;26.63;14.40;;;7.40;99.90;;;;;;5186469;28;20634;-67
2020/12/18 13:32:38;;;;;;;20.63;12.83;;;7.30;99.90;;;;;;5186108;28;20226;-68
2020/12/18 13:35:09;;;;;;;23.73;13.80;;;7.30;99.90;;;;;;5185313;28;20806;-69
2020/12/18 13:37:41;;;;;;;23.53;13.33;;;7.30;99.90;;;;;;5185308;28;20195;-69
2020/12/18 13:40:13;;;;;;;21.80;13.40;;;7.30;99.90;;;;;;5185650;28;20606;-69
2020/12/18 13:42:45;;;;;;;24.67;14.13;;;7.30;99.90;;;;;;5168291;28;20195;-68
2020/12/18 13:45:16;;;;;;;25.10;14.17;;;7.30;99.90;;;;;;5185783;28;20590;-69
2020/12/18 13:47:47;;;;;;;21.70;13.80;;;7.30;99.90;;;;;;5185500;28;20199;-69
2020/12/18 13:50:19;;;;;;;22.10;13.93;;;7.30;99.90;;;;;;5185219;28;20191;-70